Redford, Michigan
Current Conditions -  °F | °C
As of 11:15 AM on Saturday 25 Oct 2014 (Local Time) from KVLL Reporting Station
Overcast Overcast  
Wind Chill: 59°   Ceiling: 1400
Heat Index: 59°   Visibility: 7mi
Dew Point: 52°   Wind: 9mph
Humidity: 77%   Direction: 260°W
Pressure: 29.82"   Gusts: 18mph
Location:  42.4°N, 83.29°W
Report Text: KVLL 251515Z AUTO 26008G16KT 7SM OVC014 15/11 A2982 RMK AO2 T01500110
Loading
Personal Weather Stations






























Interactive Weather Map
Tropical Storm Tracking
New forecast layout! Learn more

10-Day Weather Forecast

Advertisements
Track Severe Weather on mobile